createdAt,value
2022-11-09T00:04:54.856Z,45.1
2022-11-09T00:09:55.551Z,45.1
2022-11-09T00:14:56.252Z,45
2022-11-09T00:19:56.811Z,44.9
2022-11-09T00:24:57.382Z,44.9
2022-11-09T00:29:58.769Z,44.8
2022-11-09T00:34:59.343Z,44.7
2022-11-09T00:39:59.869Z,44.7
2022-11-09T00:45:00.452Z,44.6
2022-11-09T00:50:00.962Z,44.6
2022-11-09T00:55:01.495Z,44.5
2022-11-09T01:00:02.011Z,44.4
2022-11-09T01:05:02.612Z,44.4
2022-11-09T01:10:04.025Z,44.3
2022-11-09T01:15:04.550Z,44.2
2022-11-09T01:20:05.088Z,44.2
2022-11-09T01:25:05.654Z,44.2
2022-11-09T01:30:06.165Z,44.1
2022-11-09T01:35:06.665Z,44.1
2022-11-09T01:40:07.223Z,44
2022-11-09T01:45:07.742Z,43.9
2022-11-09T01:50:08.256Z,43.9
2022-11-09T01:55:08.768Z,43.8
2022-11-09T02:00:09.290Z,43.7
2022-11-09T02:05:09.774Z,43.7
2022-11-09T02:10:10.266Z,43.6
2022-11-09T02:15:10.761Z,43.6
2022-11-09T02:20:11.306Z,43.5
2022-11-09T02:25:11.807Z,43.5
2022-11-09T02:30:12.313Z,43.4
2022-11-09T02:35:13.028Z,43.4
2022-11-09T02:40:13.544Z,43.3
2022-11-09T02:45:14.021Z,43.3
2022-11-09T02:50:14.543Z,43.2
2022-11-09T02:55:15.015Z,43.1
2022-11-09T03:00:15.512Z,43.1
2022-11-09T03:05:16.004Z,43.1
2022-11-09T03:10:16.543Z,43
2022-11-09T03:15:17.028Z,42.9
2022-11-09T03:20:17.538Z,42.9
2022-11-09T03:25:18.016Z,42.8
2022-11-09T03:30:18.530Z,42.7
2022-11-09T03:35:19.005Z,42.7
2022-11-09T03:40:19.514Z,42.7
2022-11-09T03:45:19.977Z,42.6
2022-11-09T03:50:20.458Z,42.6
2022-11-09T03:55:20.952Z,42.5
2022-11-09T04:00:21.444Z,42.5
2022-11-09T04:05:21.901Z,42.4
2022-11-09T04:10:22.356Z,42.4
2022-11-09T04:15:22.957Z,42.3
2022-11-09T04:20:23.509Z,42.2
2022-11-09T04:25:23.963Z,42.2
2022-11-09T04:30:24.425Z,42.2
2022-11-09T04:35:24.883Z,42.1
2022-11-09T04:40:25.347Z,42.1
2022-11-09T04:45:26.009Z,42
2022-11-09T04:50:26.515Z,42
2022-11-09T04:55:26.942Z,41.9
2022-11-09T05:00:27.369Z,41.9
2022-11-09T05:05:27.788Z,41.8
2022-11-09T05:10:28.288Z,41.8
2022-11-09T05:15:28.700Z,41.7
2022-11-09T05:20:29.330Z,41.7
2022-11-09T05:25:29.749Z,41.6
2022-11-09T05:30:30.194Z,41.6
2022-11-09T05:35:30.606Z,41.6
2022-11-09T05:40:31.019Z,41.5
2022-11-09T05:45:46.756Z,41.4
2022-11-09T05:50:47.291Z,41.4
2022-11-09T05:55:47.686Z,41.4
2022-11-09T06:00:48.095Z,41.3
2022-11-09T06:05:48.531Z,41.2
2022-11-09T06:10:48.966Z,41.2
2022-11-09T06:15:49.343Z,41.2
2022-11-09T06:20:49.750Z,41.1
2022-11-09T06:25:50.187Z,41.1
2022-11-09T06:30:50.846Z,41.1
2022-11-09T06:35:56.045Z,41
2022-11-09T06:40:57.653Z,41
2022-11-09T06:45:58.102Z,40.9
2022-11-09T06:50:58.565Z,40.9
2022-11-09T06:55:58.995Z,40.9
2022-11-09T07:00:59.560Z,40.8
2022-11-09T07:06:00.178Z,40.8
2022-11-09T07:11:00.669Z,40.8
2022-11-09T07:16:01.083Z,40.7
2022-11-09T07:21:01.506Z,40.6
2022-11-09T07:26:01.933Z,40.6
2022-11-09T07:31:02.374Z,40.6
2022-11-09T07:36:02.782Z,40.5
2022-11-09T07:41:03.186Z,40.5
2022-11-09T07:46:03.692Z,40.4
2022-11-09T07:51:04.988Z,40.4
2022-11-09T07:56:05.425Z,40.4
2022-11-09T08:01:06.982Z,40.3
2022-11-09T08:06:11.078Z,40.2
2022-11-09T08:11:13.579Z,40.2
2022-11-09T08:16:14.041Z,40.2
2022-11-09T08:21:14.717Z,40.1
2022-11-09T08:26:15.136Z,40.1
2022-11-09T08:31:15.539Z,40.1
2022-11-09T08:36:15.967Z,40.1
2022-11-09T08:41:16.412Z,40
2022-11-09T08:46:16.825Z,39.9
2022-11-09T08:51:17.250Z,39.9
2022-11-09T08:56:17.682Z,39.9
2022-11-09T09:01:18.103Z,39.8
2022-11-09T09:06:18.515Z,39.8
2022-11-09T09:11:18.925Z,39.7
2022-11-09T09:16:19.414Z,39.7
2022-11-09T09:21:19.847Z,39.7
2022-11-09T09:26:20.284Z,39.7
2022-11-09T09:31:20.696Z,39.6
2022-11-09T09:36:21.128Z,39.6
2022-11-09T09:41:21.555Z,39.6
2022-11-09T09:46:21.999Z,39.5
2022-11-09T09:51:22.396Z,39.5
2022-11-09T09:56:22.832Z,39.4
2022-11-09T10:01:23.250Z,39.4
2022-11-09T10:06:23.682Z,39.4
2022-11-09T10:11:24.064Z,39.3
2022-11-09T10:16:24.484Z,39.3
2022-11-09T10:21:24.888Z,39.2
2022-11-09T10:26:25.517Z,39.2
2022-11-09T10:36:32.127Z,39.1
2022-11-09T10:41:32.540Z,39.1
2022-11-09T10:46:33.839Z,39.1
2022-11-09T10:51:34.270Z,39.1
2022-11-09T10:56:41.840Z,39
2022-11-09T11:01:57.012Z,39
2022-11-09T11:07:01.513Z,38.9
2022-11-09T11:12:01.958Z,38.9
2022-11-09T11:17:02.416Z,38.9
2022-11-09T11:22:03.016Z,38.8
2022-11-09T11:27:06.598Z,38.8
2022-11-09T11:32:09.828Z,38.7
2022-11-09T11:37:10.207Z,38.7
2022-11-09T11:42:10.591Z,38.7
2022-11-09T11:47:10.961Z,38.7
2022-11-09T11:52:11.352Z,38.6
2022-11-09T11:57:11.729Z,38.6
2022-11-09T12:02:12.189Z,38.6
2022-11-09T12:07:12.862Z,38.5
2022-11-09T12:12:13.560Z,38.5
2022-11-09T12:17:13.963Z,38.4
2022-11-09T12:22:14.320Z,38.4
2022-11-09T12:27:31.409Z,38.4
2022-11-09T12:32:32.497Z,38.4
2022-11-09T12:37:32.870Z,38.3
2022-11-09T12:42:33.253Z,38.2
2022-11-09T12:47:33.683Z,38.2
2022-11-09T12:52:34.086Z,38.2
2022-11-09T12:57:34.462Z,38.2
2022-11-09T13:02:34.855Z,38.2
2022-11-09T13:07:35.217Z,38.1
2022-11-09T13:12:35.567Z,38.1
2022-11-09T13:17:35.905Z,38.1
2022-11-09T13:22:36.258Z,38.1
2022-11-09T13:27:36.641Z,38
2022-11-09T13:32:37.039Z,37.9
2022-11-09T13:37:37.573Z,37.9
2022-11-09T13:42:38.145Z,37.9
2022-11-09T13:47:38.542Z,37.8
2022-11-09T13:52:38.962Z,37.8
2022-11-09T13:57:39.284Z,37.7
2022-11-09T14:02:39.603Z,37.7
2022-11-09T14:07:39.914Z,37.7
2022-11-09T14:12:40.228Z,37.7
2022-11-09T14:17:40.529Z,37.6
2022-11-09T14:22:40.844Z,37.6
2022-11-09T14:27:41.212Z,37.6
2022-11-09T14:32:41.513Z,37.6
2022-11-09T14:37:41.860Z,37.5
2022-11-09T14:42:46.131Z,37.5
2022-11-09T14:47:46.742Z,37.5
2022-11-09T14:52:47.098Z,37.4
2022-11-09T14:57:48.287Z,37.4
2022-11-09T15:02:48.605Z,37.4
2022-11-09T15:07:49.038Z,37.3
2022-11-09T15:12:49.416Z,37.2
2022-11-09T15:17:49.719Z,37.2
2022-11-09T15:22:50.007Z,37.2
2022-11-09T15:27:50.414Z,37.2
2022-11-09T15:32:50.777Z,37.2
2022-11-09T15:37:51.057Z,37.1
2022-11-09T15:42:51.347Z,37.1
2022-11-09T15:47:51.668Z,37.1
2022-11-09T15:52:51.930Z,37.1
2022-11-09T15:57:52.244Z,37
2022-11-09T16:02:52.558Z,38.9
2022-11-09T16:07:53.016Z,41.1
2022-11-09T16:12:53.517Z,43.6
2022-11-09T16:17:54.103Z,46.4
2022-11-09T16:22:54.729Z,48.4
2022-11-09T16:27:55.418Z,49
2022-11-09T16:32:56.136Z,49.6
2022-11-09T16:37:56.833Z,49.6
2022-11-09T16:42:57.567Z,49.5
2022-11-09T16:47:58.283Z,48.9
2022-11-09T16:52:59.205Z,48.2
2022-11-09T16:57:59.809Z,46.8
2022-11-09T17:03:00.397Z,44.8
2022-11-09T17:08:00.923Z,44.1
2022-11-09T17:13:01.388Z,41.7
2022-11-09T17:18:01.820Z,40.1
2022-11-09T17:23:02.269Z,41.3
2022-11-09T17:28:02.759Z,44.4
2022-11-09T17:33:03.313Z,46.2
2022-11-09T17:38:03.934Z,46.5
2022-11-09T17:43:04.560Z,46.5
2022-11-09T17:48:05.191Z,46.5
2022-11-09T17:53:05.793Z,45.9
2022-11-09T17:58:06.392Z,45
2022-11-09T18:03:06.913Z,43.3
2022-11-09T18:08:07.389Z,42.2
2022-11-09T18:13:07.839Z,41.9
2022-11-09T18:18:08.317Z,41.7
2022-11-09T18:23:08.957Z,41.6
2022-11-09T18:28:09.390Z,41.4
2022-11-09T18:33:09.847Z,41.3
2022-11-09T18:38:13.152Z,41.2
2022-11-09T18:43:21.227Z,41.1
2022-11-09T18:48:21.984Z,40.9
2022-11-09T18:53:22.831Z,40.8
2022-11-09T18:58:24.403Z,40.7
2022-11-09T19:03:24.985Z,40.6
2022-11-09T19:08:25.426Z,40.4
2022-11-09T19:13:25.884Z,40.3
2022-11-09T19:18:26.337Z,40.2
2022-11-09T19:23:31.224Z,40.1
2022-11-09T19:28:34.301Z,40
2022-11-09T19:33:34.651Z,39.9
2022-11-09T19:38:35.247Z,39.7
2022-11-09T19:43:35.642Z,39.6
2022-11-09T19:48:36.315Z,39.6
2022-11-09T19:53:41.167Z,39.4
2022-11-09T19:58:42.676Z,39.4
2022-11-09T20:03:43.330Z,39.2
2022-11-09T20:08:43.742Z,39.1
2022-11-09T20:13:44.378Z,39.1
2022-11-09T20:18:45.607Z,38.8
2022-11-09T20:23:46.874Z,38.4
2022-11-09T20:28:47.395Z,38.2
2022-11-09T20:33:48.663Z,38.1
2022-11-09T20:38:49.252Z,38.1
2022-11-09T20:43:49.622Z,37.9
2022-11-09T20:48:54.826Z,37.9
2022-11-09T20:53:55.697Z,37.8
2022-11-09T20:58:56.046Z,37.7
2022-11-09T21:03:56.653Z,37.6
2022-11-09T21:08:56.992Z,37.6
2022-11-09T21:13:57.350Z,37.5
2022-11-09T21:18:57.640Z,37.4
2022-11-09T21:23:57.990Z,37.4
2022-11-09T21:28:58.285Z,37.2
2022-11-09T21:33:58.612Z,36.4
2022-11-09T21:38:58.911Z,36.1
2022-11-09T21:43:59.239Z,36
2022-11-09T21:48:59.537Z,35.9
2022-11-09T21:53:59.851Z,35.9
2022-11-09T21:59:00.152Z,35.8
2022-11-09T22:04:00.428Z,35.7
2022-11-09T22:09:00.709Z,35.7
2022-11-09T22:14:01.009Z,35.6
2022-11-09T22:19:01.331Z,35.6
2022-11-09T22:24:01.638Z,35.6
2022-11-09T22:29:01.904Z,35.5
2022-11-09T22:34:02.438Z,35.4
2022-11-09T22:39:02.701Z,35.4
2022-11-09T22:44:02.974Z,35.4
2022-11-09T22:49:03.297Z,35.3
2022-11-09T22:54:03.578Z,35.2
2022-11-09T22:59:03.827Z,35.2
2022-11-09T23:04:04.085Z,35.2
2022-11-09T23:09:04.317Z,35.1
2022-11-09T23:14:04.596Z,35.1
2022-11-09T23:19:04.851Z,35.1
2022-11-09T23:24:05.149Z,35
2022-11-09T23:29:05.392Z,34.9
2022-11-09T23:34:09.970Z,34.9
2022-11-09T23:39:10.539Z,34.9
2022-11-09T23:44:10.793Z,34.8
2022-11-09T23:49:11.049Z,34.8
2022-11-09T23:54:11.276Z,34.7
2022-11-09T23:59:11.537Z,34.7
